createdAt,value
2018-04-12T00:00:41.684Z,56.40
2018-04-12T00:01:41.621Z,53.20
2018-04-12T00:02:41.615Z,53.90
2018-04-12T00:03:41.592Z,54.60
2018-04-12T00:04:41.582Z,54.20
2018-04-12T00:05:41.560Z,55.10
2018-04-12T00:06:41.554Z,52.30
2018-04-12T00:07:41.531Z,52.40
2018-04-12T00:08:41.511Z,51.80
2018-04-12T00:09:41.503Z,52.60
2018-04-12T00:10:41.482Z,50.90
2018-04-12T00:11:41.472Z,50.60
2018-04-12T00:12:41.459Z,50.30
2018-04-12T00:13:41.438Z,49.70
2018-04-12T00:14:41.420Z,51.30
2018-04-12T00:15:41.417Z,48.00
2018-04-12T00:16:41.393Z,51.30
2018-04-12T00:17:41.382Z,50.00
2018-04-12T00:18:41.361Z,49.50
2018-04-12T00:19:41.349Z,49.80
2018-04-12T00:20:41.332Z,48.80
2018-04-12T00:21:41.319Z,48.80
2018-04-12T00:22:41.300Z,49.60
2018-04-12T00:23:41.286Z,49.40
2018-04-12T00:24:41.279Z,49.50
2018-04-12T00:25:41.254Z,48.20
2018-04-12T00:26:41.241Z,48.70
2018-04-12T00:27:41.221Z,48.80
2018-04-12T00:28:41.212Z,49.30
2018-04-12T00:29:41.193Z,49.60
2018-04-12T00:30:41.193Z,48.40
2018-04-12T00:31:41.176Z,48.30
2018-04-12T00:32:41.154Z,49.20
2018-04-12T00:33:41.129Z,48.80
2018-04-12T00:34:41.115Z,47.80
2018-04-12T00:35:41.101Z,48.00
2018-04-12T00:36:41.081Z,46.90
2018-04-12T00:37:41.069Z,49.10
2018-04-12T00:38:41.052Z,49.20
2018-04-12T00:39:41.037Z,46.60
2018-04-12T00:40:41.022Z,49.90
2018-04-12T00:41:41.004Z,48.10
2018-04-12T00:42:40.992Z,46.20
2018-04-12T00:43:41.028Z,46.80
2018-04-12T00:44:40.962Z,47.50
2018-04-12T00:45:40.944Z,47.50
2018-04-12T00:46:40.934Z,46.00
2018-04-12T00:47:40.912Z,46.80
2018-04-12T00:48:40.892Z,46.60
2018-04-12T00:49:40.877Z,46.30
2018-04-12T00:50:40.861Z,46.70
2018-04-12T00:51:40.851Z,45.40
2018-04-12T00:52:40.832Z,46.50
2018-04-12T00:53:40.811Z,45.50
2018-04-12T00:54:40.795Z,47.10
2018-04-12T00:55:40.780Z,45.80
2018-04-12T00:56:40.771Z,46.10
2018-04-12T00:57:40.750Z,46.60
2018-04-12T00:58:40.739Z,45.50
2018-04-12T00:59:40.724Z,45.40
2018-04-12T01:00:40.700Z,45.00
2018-04-12T01:01:40.692Z,45.80
2018-04-12T01:02:40.674Z,45.90
2018-04-12T01:03:40.661Z,49.00
2018-04-12T01:04:40.651Z,47.60
2018-04-12T01:05:40.631Z,46.30
2018-04-12T01:06:40.610Z,45.90
2018-04-12T01:07:40.592Z,46.40
2018-04-12T01:08:40.579Z,46.10
2018-04-12T01:09:40.565Z,47.80
2018-04-12T01:10:40.554Z,47.10
2018-04-12T01:11:40.538Z,46.70
2018-04-12T01:12:40.514Z,49.10
2018-04-12T01:13:40.504Z,46.40
2018-04-12T01:14:40.487Z,46.20
2018-04-12T01:15:40.529Z,46.50
2018-04-12T01:16:40.451Z,48.20
2018-04-12T01:17:40.438Z,45.90
2018-04-12T01:18:40.424Z,46.50
2018-04-12T01:19:40.401Z,47.00
2018-04-12T01:20:40.392Z,47.80
2018-04-12T01:21:40.377Z,48.50
2018-04-12T01:22:40.362Z,48.60
2018-04-12T01:23:40.342Z,50.50
2018-04-12T01:24:40.321Z,49.40
2018-04-12T01:25:40.306Z,48.20
2018-04-12T01:26:40.289Z,47.80
2018-04-12T01:27:40.276Z,48.20
2018-04-12T01:28:40.262Z,48.00
2018-04-12T01:29:40.243Z,48.30
2018-04-12T01:30:40.227Z,47.80
2018-04-12T01:31:40.214Z,48.90
2018-04-12T01:32:40.197Z,51.10
2018-04-12T01:33:40.183Z,49.10
2018-04-12T01:34:40.163Z,48.40
2018-04-12T01:35:40.153Z,47.10
2018-04-12T01:36:40.134Z,48.00
2018-04-12T01:37:40.121Z,48.30
2018-04-12T01:38:40.098Z,48.90
2018-04-12T01:39:40.143Z,46.80
2018-04-12T01:40:40.064Z,48.60
2018-04-12T01:41:40.054Z,48.50
2018-04-12T01:42:40.036Z,47.70
2018-04-12T01:43:40.023Z,50.00
2018-04-12T01:44:40.004Z,51.50
2018-04-12T01:45:39.994Z,49.30
2018-04-12T01:46:39.973Z,48.10
2018-04-12T01:47:39.963Z,50.00
2018-04-12T01:48:39.940Z,49.30
2018-04-12T01:49:40.072Z,53.00
2018-04-12T01:50:39.909Z,49.40
2018-04-12T01:51:39.893Z,48.40
2018-04-12T01:52:39.878Z,48.10
2018-04-12T01:53:39.871Z,47.10
2018-04-12T01:54:39.843Z,49.30
2018-04-12T01:55:39.827Z,51.30
2018-04-12T01:56:39.813Z,50.60
2018-04-12T01:57:39.915Z,49.60
2018-04-12T01:58:39.777Z,49.70
2018-04-12T01:59:39.765Z,50.20
2018-04-12T02:00:39.749Z,50.90
2018-04-12T02:01:39.736Z,51.50
2018-04-12T02:02:39.720Z,49.20
2018-04-12T02:03:39.745Z,50.10
2018-04-12T02:04:39.680Z,51.70
2018-04-12T02:05:39.767Z,50.70
2018-04-12T02:06:39.653Z,51.30
2018-04-12T02:07:39.732Z,55.60
2018-04-12T02:08:39.626Z,51.90
2018-04-12T02:09:39.602Z,52.80
2018-04-12T02:10:39.581Z,52.10
2018-04-12T02:11:39.629Z,54.20
2018-04-12T02:12:39.552Z,50.90
2018-04-12T02:13:39.595Z,51.90
2018-04-12T02:14:39.521Z,51.90
2018-04-12T02:15:39.501Z,52.80
2018-04-12T02:16:39.505Z,52.50
2018-04-12T02:17:39.472Z,55.40
2018-04-12T02:18:39.462Z,51.50
2018-04-12T02:19:39.440Z,51.10
2018-04-12T02:20:39.421Z,51.00
2018-04-12T02:21:39.409Z,53.50
2018-04-12T02:22:39.393Z,52.20
2018-04-12T02:23:39.379Z,52.60
2018-04-12T02:24:39.362Z,51.20
2018-04-12T02:25:39.338Z,51.50
2018-04-12T02:26:39.331Z,55.10
2018-04-12T02:27:39.315Z,51.50
2018-04-12T02:28:39.292Z,53.70
2018-04-12T02:29:39.277Z,54.20
2018-04-12T02:30:39.262Z,52.30
2018-04-12T02:31:39.242Z,52.30
2018-04-12T02:32:39.232Z,51.60
2018-04-12T02:33:39.212Z,52.60
2018-04-12T02:34:39.201Z,52.50
2018-04-12T02:35:39.176Z,56.50
2018-04-12T02:36:39.163Z,53.80
2018-04-12T02:37:39.154Z,53.80
2018-04-12T02:38:39.130Z,53.50
2018-04-12T02:39:39.121Z,53.20
2018-04-12T02:40:39.095Z,55.40
2018-04-12T02:41:39.083Z,54.20
2018-04-12T02:42:39.083Z,51.60
2018-04-12T02:43:39.047Z,52.30
2018-04-12T02:44:39.032Z,55.10
2018-04-12T02:45:39.017Z,57.70
2018-04-12T02:46:39.001Z,55.80
2018-04-12T02:47:38.983Z,54.60
2018-04-12T02:48:38.964Z,56.90
2018-04-12T02:49:38.952Z,56.20
2018-04-12T02:50:38.938Z,56.30
2018-04-12T02:51:38.926Z,53.40
2018-04-12T02:52:38.903Z,56.20
2018-04-12T02:53:38.900Z,56.40
2018-04-12T02:54:38.867Z,60.10
2018-04-12T02:55:38.851Z,57.40
2018-04-12T02:56:38.838Z,57.20
2018-04-12T02:57:38.823Z,55.70
2018-04-12T02:58:38.805Z,59.70
2018-04-12T02:59:38.785Z,55.20
2018-04-12T03:00:38.783Z,57.20
2018-04-12T03:01:38.754Z,59.00
2018-04-12T03:02:38.743Z,57.50
2018-04-12T03:03:38.723Z,55.30
2018-04-12T03:04:38.704Z,56.30
2018-04-12T03:05:38.690Z,56.70
2018-04-12T03:06:38.672Z,55.00
2018-04-12T03:07:38.652Z,59.50
2018-04-12T03:08:38.638Z,62.90
2018-04-12T03:09:38.625Z,58.50
2018-04-12T03:10:38.612Z,58.80
2018-04-12T03:11:38.586Z,59.00
2018-04-12T03:12:38.569Z,60.50
2018-04-12T03:13:38.554Z,58.20
2018-04-12T03:14:38.539Z,61.30
2018-04-12T03:15:38.524Z,62.00
2018-04-12T03:16:38.508Z,59.70
2018-04-12T03:17:38.492Z,61.00
2018-04-12T03:18:38.480Z,64.40
2018-04-12T03:19:38.456Z,63.00
2018-04-12T03:20:38.444Z,60.90
2018-04-12T03:21:38.421Z,60.60
2018-04-12T03:22:38.403Z,59.70
2018-04-12T03:23:38.394Z,60.20
2018-04-12T03:24:38.368Z,61.70
2018-04-12T03:25:38.353Z,61.50
2018-04-12T03:26:38.341Z,58.40
2018-04-12T03:27:38.328Z,62.20
2018-04-12T03:28:38.310Z,60.80
2018-04-12T03:29:38.286Z,61.90
2018-04-12T03:30:38.271Z,64.50
2018-04-12T03:31:38.253Z,62.50
2018-04-12T03:32:38.247Z,62.40
2018-04-12T03:33:38.223Z,63.80
2018-04-12T03:34:38.208Z,67.20
2018-04-12T03:35:38.187Z,61.30
2018-04-12T03:36:38.170Z,65.70
2018-04-12T03:37:38.154Z,66.90
2018-04-12T03:38:38.138Z,64.00
2018-04-12T03:39:38.122Z,67.20
2018-04-12T03:40:38.105Z,64.90
2018-04-12T03:41:38.093Z,63.60
2018-04-12T03:42:38.076Z,62.70
2018-04-12T03:43:38.052Z,67.70
2018-04-12T03:44:38.044Z,66.00
2018-04-12T03:45:38.020Z,68.10
2018-04-12T03:46:38.003Z,64.20
2018-04-12T03:47:37.987Z,65.00
2018-04-12T03:48:38.038Z,66.70
2018-04-12T03:49:38.008Z,67.70
2018-04-12T03:50:37.965Z,63.50
2018-04-12T03:51:37.922Z,62.80
2018-04-12T03:52:37.906Z,62.90
2018-04-12T03:53:37.892Z,67.80
2018-04-12T03:54:37.873Z,65.90
2018-04-12T03:55:37.850Z,67.40
2018-04-12T03:56:37.834Z,67.00
2018-04-12T03:57:37.817Z,64.20
2018-04-12T03:58:37.800Z,70.60
2018-04-12T03:59:37.789Z,69.20
2018-04-12T04:00:37.770Z,70.30
2018-04-12T04:01:37.761Z,68.60
2018-04-12T04:02:37.733Z,69.20
2018-04-12T04:03:37.723Z,68.40
2018-04-12T04:04:37.703Z,67.90
2018-04-12T04:05:37.682Z,69.90
2018-04-12T04:06:37.667Z,72.50
2018-04-12T04:07:37.649Z,69.40
2018-04-12T04:08:37.632Z,68.40
2018-04-12T04:09:37.622Z,72.90
2018-04-12T04:10:37.600Z,67.80
2018-04-12T04:11:37.583Z,70.70
2018-04-12T04:12:37.567Z,68.60
2018-04-12T04:13:37.548Z,68.50
2018-04-12T04:14:37.532Z,74.60
2018-04-12T04:15:37.514Z,76.10
2018-04-12T04:16:37.503Z,69.20
2018-04-12T04:17:37.479Z,76.90
2018-04-12T04:18:37.464Z,77.20
2018-04-12T04:19:37.449Z,75.40
2018-04-12T04:20:37.436Z,76.50
2018-04-12T04:21:37.412Z,76.70
2018-04-12T04:22:37.402Z,74.70
2018-04-12T04:23:37.382Z,80.30
2018-04-12T04:24:37.364Z,74.80
2018-04-12T04:25:37.347Z,83.00
2018-04-12T04:26:37.328Z,77.50
2018-04-12T04:27:37.313Z,79.30
2018-04-12T04:28:37.295Z,77.40
2018-04-12T04:29:37.281Z,81.70
2018-04-12T04:30:37.266Z,77.90
2018-04-12T04:31:37.243Z,78.40
2018-04-12T04:32:37.233Z,74.80
2018-04-12T04:33:37.223Z,73.40
2018-04-12T04:34:37.194Z,74.10
2018-04-12T04:35:37.186Z,76.20
2018-04-12T04:36:37.159Z,74.10
2018-04-12T04:37:37.143Z,77.80
2018-04-12T04:38:37.125Z,79.20
2018-04-12T04:39:37.108Z,75.70
2018-04-12T04:40:37.093Z,76.10
2018-04-12T04:41:37.072Z,75.90
2018-04-12T04:42:37.067Z,77.80
2018-04-12T04:43:37.043Z,76.40
2018-04-12T04:44:37.028Z,76.50
2018-04-12T04:45:37.013Z,74.50
2018-04-12T04:46:36.993Z,77.30
2018-04-12T04:47:36.976Z,77.80
2018-04-12T04:48:37.029Z,71.40
2018-04-12T04:49:36.952Z,73.90
2018-04-12T04:50:37.046Z,76.50
2018-04-12T04:51:36.913Z,77.40
2018-04-12T04:52:36.894Z,72.30
2018-04-12T04:53:36.874Z,70.30
2018-04-12T04:54:36.963Z,69.00
2018-04-12T04:55:36.842Z,85.70
2018-04-12T04:56:36.846Z,80.30
2018-04-12T04:57:36.805Z,71.70
2018-04-12T04:58:36.788Z,78.00
2018-04-12T04:59:36.773Z,79.70
2018-04-12T05:00:36.760Z,82.10
2018-04-12T05:01:36.743Z,77.60
2018-04-12T05:02:36.722Z,74.90
2018-04-12T05:03:36.712Z,77.90
2018-04-12T05:04:36.802Z,76.30
2018-04-12T05:05:36.671Z,75.90
2018-04-12T05:06:36.786Z,76.60
2018-04-12T05:07:36.637Z,80.20
2018-04-12T05:08:36.670Z,74.40
2018-04-12T05:09:36.606Z,79.30
2018-04-12T05:10:36.589Z,79.80
2018-04-12T05:11:36.570Z,75.00
2018-04-12T05:12:36.604Z,75.20
2018-04-12T05:13:36.533Z,79.60
2018-04-12T05:14:36.523Z,78.40
2018-04-12T05:15:36.566Z,80.70
2018-04-12T05:16:36.493Z,80.40
2018-04-12T05:17:36.473Z,81.00
2018-04-12T05:18:36.554Z,77.20
2018-04-12T05:19:36.432Z,81.40
2018-04-12T05:20:36.518Z,77.50
2018-04-12T05:21:36.407Z,79.40
2018-04-12T05:22:36.388Z,77.50
2018-04-12T05:23:36.376Z,78.20
2018-04-12T05:24:36.353Z,82.20
2018-04-12T05:25:36.345Z,84.10
2018-04-12T05:26:36.323Z,80.90
2018-04-12T05:27:36.315Z,83.30
2018-04-12T05:28:36.289Z,80.20
2018-04-12T05:29:36.275Z,84.60
2018-04-12T05:30:36.251Z,81.50
2018-04-12T05:31:36.244Z,84.40
2018-04-12T05:32:36.225Z,84.30
2018-04-12T05:33:36.206Z,86.70
2018-04-12T05:34:36.196Z,86.70
2018-04-12T05:35:36.168Z,81.70
2018-04-12T05:36:36.155Z,85.20
2018-04-12T05:37:36.135Z,82.00
2018-04-12T05:38:36.124Z,84.40
2018-04-12T05:39:36.107Z,76.90
2018-04-12T05:40:36.084Z,81.80
2018-04-12T05:41:36.076Z,79.70
2018-04-12T05:42:36.055Z,79.60
2018-04-12T05:43:36.036Z,80.80
2018-04-12T05:44:36.016Z,83.00
2018-04-12T05:45:36.002Z,80.30
2018-04-12T05:46:35.984Z,84.00
2018-04-12T05:47:35.965Z,80.10
2018-04-12T05:48:35.948Z,81.10
2018-04-12T05:49:35.932Z,82.50
2018-04-12T05:50:35.921Z,80.90
2018-04-12T05:51:35.904Z,81.90
2018-04-12T05:52:35.895Z,81.00
2018-04-12T05:53:35.869Z,80.30
2018-04-12T05:54:35.851Z,79.60
2018-04-12T05:55:35.833Z,80.10
2018-04-12T05:56:35.815Z,76.00
2018-04-12T05:57:35.801Z,77.90
2018-04-12T05:58:35.786Z,74.60
2018-04-12T05:59:35.772Z,77.50
2018-04-12T06:00:35.754Z,77.20
2018-04-12T06:01:35.744Z,79.00
2018-04-12T06:02:35.723Z,82.00
2018-04-12T06:03:35.704Z,79.00
2018-04-12T06:04:35.683Z,74.50
2018-04-12T06:05:35.667Z,73.50
2018-04-12T06:06:35.665Z,75.00
2018-04-12T06:07:35.636Z,73.90
2018-04-12T06:08:35.637Z,75.80
2018-04-12T06:09:35.601Z,75.60
2018-04-12T06:10:35.592Z,74.60
2018-04-12T06:11:35.569Z,76.80
2018-04-12T06:12:35.555Z,75.20
2018-04-12T06:13:35.541Z,72.40
2018-04-12T06:14:35.525Z,79.00
2018-04-12T06:15:35.507Z,76.20
2018-04-12T06:16:35.494Z,73.40
2018-04-12T06:17:35.470Z,69.70
2018-04-12T06:18:35.454Z,72.70
2018-04-12T06:19:35.443Z,73.80
2018-04-12T06:20:35.424Z,71.60
2018-04-12T06:21:35.404Z,69.50
2018-04-12T06:22:35.389Z,73.60
2018-04-12T06:23:35.375Z,68.80
2018-04-12T06:24:35.369Z,75.70
2018-04-12T06:25:35.343Z,72.40
2018-04-12T06:26:35.324Z,73.10
2018-04-12T06:27:35.309Z,75.10
2018-04-12T06:28:35.293Z,68.60
2018-04-12T06:29:35.274Z,67.10
2018-04-12T06:30:35.263Z,73.00
2018-04-12T06:31:35.245Z,69.30
2018-04-12T06:32:35.223Z,68.60
2018-04-12T06:33:35.209Z,68.60
2018-04-12T06:34:35.195Z,69.40
2018-04-12T06:35:35.185Z,64.40
2018-04-12T06:36:35.162Z,70.10
2018-04-12T06:37:35.146Z,73.20
2018-04-12T06:38:35.132Z,65.90
2018-04-12T06:39:35.111Z,65.90
2018-04-12T06:40:35.093Z,70.90
2018-04-12T06:41:35.083Z,64.30
2018-04-12T06:42:35.065Z,68.90
2018-04-12T06:43:35.054Z,66.20
2018-04-12T06:44:35.039Z,67.30
2018-04-12T06:45:35.022Z,64.90
2018-04-12T06:46:35.003Z,66.70
2018-04-12T06:47:34.984Z,63.90
2018-04-12T06:48:34.963Z,66.10
2018-04-12T06:49:34.963Z,67.60
2018-04-12T06:50:34.932Z,64.70
2018-04-12T06:51:34.913Z,67.40
2018-04-12T06:52:34.913Z,67.80
2018-04-12T06:53:34.884Z,70.20
2018-04-12T06:54:34.874Z,64.40
2018-04-12T06:55:34.853Z,66.30
2018-04-12T06:56:34.833Z,64.50
2018-04-12T06:57:34.820Z,72.70
2018-04-12T06:58:34.800Z,66.40
2018-04-12T06:59:34.818Z,68.00
2018-04-12T07:00:34.772Z,75.50
2018-04-12T07:01:34.760Z,70.10
2018-04-12T07:02:34.734Z,70.90
2018-04-12T07:03:34.721Z,69.30
2018-04-12T07:04:34.702Z,64.80
2018-04-12T07:05:34.692Z,66.60
2018-04-12T07:06:34.670Z,63.40
2018-04-12T07:07:34.652Z,68.80
2018-04-12T07:08:34.641Z,65.40
2018-04-12T07:09:34.621Z,69.70
2018-04-12T07:10:34.608Z,62.50
2018-04-12T07:11:34.607Z,62.60
2018-04-12T07:12:34.571Z,65.10
2018-04-12T07:13:34.561Z,65.80
2018-04-12T07:14:34.554Z,60.80
2018-04-12T07:15:34.522Z,59.30
2018-04-12T07:16:34.511Z,60.30
2018-04-12T07:17:34.499Z,58.90
2018-04-12T07:18:34.474Z,56.20
2018-04-12T07:19:34.460Z,57.80
2018-04-12T07:20:34.442Z,59.10
2018-04-12T07:21:34.432Z,56.80
2018-04-12T07:22:34.412Z,57.60
2018-04-12T07:23:34.391Z,57.40
2018-04-12T07:24:34.381Z,55.90
2018-04-12T07:25:34.360Z,57.60
2018-04-12T07:26:34.354Z,57.30
2018-04-12T07:27:34.327Z,55.20
2018-04-12T07:28:34.311Z,55.80
2018-04-12T07:29:34.305Z,55.20
2018-04-12T07:30:34.282Z,52.10
2018-04-12T07:31:34.272Z,55.00
2018-04-12T07:32:34.250Z,53.10
2018-04-12T07:33:34.231Z,53.30
2018-04-12T07:34:34.215Z,55.60
2018-04-12T07:35:34.213Z,53.80
2018-04-12T07:36:34.187Z,54.40
2018-04-12T07:37:34.171Z,52.40
2018-04-12T07:38:34.151Z,53.80
2018-04-12T07:39:34.135Z,53.10
2018-04-12T07:40:34.120Z,50.00
2018-04-12T07:41:34.110Z,52.20
2018-04-12T07:42:34.092Z,54.60
2018-04-12T07:43:34.105Z,53.40
2018-04-12T07:44:34.061Z,50.50
2018-04-12T07:45:34.039Z,52.10
2018-04-12T07:46:34.036Z,49.40
2018-04-12T07:47:34.016Z,51.00
2018-04-12T07:48:33.996Z,51.60
2018-04-12T07:49:33.984Z,52.50
2018-04-12T07:50:33.973Z,47.90
2018-04-12T07:51:33.957Z,50.30
2018-04-12T07:52:33.935Z,53.00
2018-04-12T07:53:33.923Z,52.90
2018-04-12T07:54:33.915Z,49.10
2018-04-12T07:55:33.900Z,52.80
2018-04-12T07:56:33.874Z,52.50
2018-04-12T07:57:33.856Z,49.20
2018-04-12T07:58:33.840Z,52.70
2018-04-12T07:59:33.827Z,50.90
2018-04-12T08:00:33.812Z,50.30
2018-04-12T08:01:33.795Z,52.30
2018-04-12T08:02:33.780Z,52.30
2018-04-12T08:03:33.765Z,48.00
2018-04-12T08:04:33.748Z,50.30
2018-04-12T08:05:33.838Z,49.40
2018-04-12T08:06:33.720Z,50.00
2018-04-12T08:07:33.755Z,51.20
2018-04-12T08:08:33.690Z,50.90
2018-04-12T08:09:33.678Z,53.60
2018-04-12T08:10:33.666Z,51.10
2018-04-12T08:11:33.704Z,49.70
2018-04-12T08:12:33.631Z,49.90
2018-04-12T08:13:33.618Z,52.60
2018-04-12T08:14:33.596Z,49.30
2018-04-12T08:15:33.733Z,50.50
2018-04-12T08:16:33.567Z,52.90
2018-04-12T08:17:33.592Z,48.60
2018-04-12T08:18:33.539Z,48.50
2018-04-12T08:19:33.550Z,47.00
2018-04-12T08:20:33.510Z,47.70
2018-04-12T08:21:33.541Z,48.00
2018-04-12T08:22:33.480Z,49.40
2018-04-12T08:23:33.478Z,46.90
2018-04-12T08:24:33.451Z,48.40
2018-04-12T08:25:33.492Z,49.50
2018-04-12T08:26:33.419Z,49.60
2018-04-12T08:27:33.423Z,45.10
2018-04-12T08:28:33.389Z,45.30
2018-04-12T08:29:33.390Z,44.40
2018-04-12T08:30:33.362Z,44.10
2018-04-12T08:31:33.349Z,45.50
2018-04-12T08:32:33.336Z,45.90
2018-04-12T08:33:33.323Z,44.00
2018-04-12T08:34:33.323Z,45.50
2018-04-12T08:35:33.291Z,44.20
2018-04-12T08:36:33.281Z,43.90
2018-04-12T08:37:33.265Z,44.00
2018-04-12T08:38:33.252Z,44.50
2018-04-12T08:39:33.240Z,42.90
2018-04-12T08:40:33.224Z,43.90
2018-04-12T08:41:33.209Z,43.90
2018-04-12T08:42:33.197Z,45.90
2018-04-12T08:43:33.183Z,43.00
2018-04-12T08:44:33.182Z,43.50
2018-04-12T08:45:33.157Z,43.60
2018-04-12T08:46:33.141Z,42.90
2018-04-12T08:47:33.127Z,44.10
2018-04-12T08:48:33.111Z,43.20
2018-04-12T08:49:33.104Z,43.20
2018-04-12T08:50:33.083Z,41.40
2018-04-12T08:51:33.077Z,43.30
2018-04-12T08:52:33.052Z,45.20
2018-04-12T08:53:33.041Z,43.40
2018-04-12T08:54:33.028Z,42.80
2018-04-12T08:55:33.013Z,49.00
2018-04-12T08:56:33.004Z,42.60
2018-04-12T08:57:32.980Z,40.10
2018-04-12T08:58:32.972Z,41.90
2018-04-12T08:59:32.957Z,44.00
2018-04-12T09:00:32.941Z,43.60
2018-04-12T09:01:32.922Z,41.90
2018-04-12T09:02:32.923Z,40.60
2018-04-12T09:03:32.891Z,42.00
2018-04-12T09:04:32.882Z,42.20
2018-04-12T09:05:32.866Z,40.00
2018-04-12T09:06:32.852Z,43.00
2018-04-12T09:07:32.833Z,45.40
2018-04-12T09:08:32.829Z,41.10
2018-04-12T09:09:32.812Z,40.00
2018-04-12T09:10:32.797Z,41.40
2018-04-12T09:11:32.782Z,38.80
2018-04-12T09:12:32.764Z,41.80
2018-04-12T09:13:32.749Z,42.00
2018-04-12T09:14:32.733Z,40.50
2018-04-12T09:15:32.721Z,43.20
2018-04-12T09:16:32.703Z,39.50
2018-04-12T09:17:32.695Z,39.40
2018-04-12T09:18:32.680Z,38.70
2018-04-12T09:19:32.664Z,37.50
2018-04-12T09:20:32.652Z,38.10
2018-04-12T09:21:32.636Z,40.10
2018-04-12T09:22:32.622Z,41.20
2018-04-12T09:23:32.614Z,39.00
2018-04-12T09:24:32.594Z,37.40
2018-04-12T09:25:32.581Z,38.60
2018-04-12T09:26:32.572Z,39.00
2018-04-12T09:27:32.549Z,36.90
2018-04-12T09:28:32.541Z,39.00
2018-04-12T09:29:32.527Z,38.70
2018-04-12T09:30:32.529Z,38.30
2018-04-12T09:31:32.502Z,36.90
2018-04-12T09:32:32.489Z,37.00
2018-04-12T09:33:32.485Z,37.20
2018-04-12T09:34:32.473Z,35.60
2018-04-12T09:35:32.454Z,36.00
2018-04-12T09:36:32.462Z,35.90
2018-04-12T09:37:32.435Z,36.90
2018-04-12T09:38:32.422Z,37.30
2018-04-12T09:39:32.412Z,36.00
2018-04-12T09:40:32.451Z,37.50
2018-04-12T09:41:32.394Z,35.70
2018-04-12T09:42:32.476Z,35.40
2018-04-12T09:43:32.362Z,35.90
2018-04-12T09:44:32.354Z,34.70
2018-04-12T09:45:32.344Z,35.50
2018-04-12T09:46:32.339Z,37.20
2018-04-12T09:47:32.330Z,37.60
2018-04-12T09:48:32.379Z,36.20
2018-04-12T09:49:32.363Z,36.30
2018-04-12T09:50:32.382Z,36.20
2018-04-12T09:51:32.282Z,36.70
2018-04-12T09:52:32.260Z,35.70
2018-04-12T09:53:32.249Z,37.80
2018-04-12T09:54:32.346Z,36.80
2018-04-12T09:55:32.230Z,37.90
2018-04-12T09:56:32.214Z,38.80
2018-04-12T09:57:32.202Z,36.70
2018-04-12T09:58:32.244Z,37.30
2018-04-12T09:59:32.186Z,36.30
2018-04-12T10:00:32.163Z,37.70
2018-04-12T10:01:32.154Z,37.20
2018-04-12T10:02:32.143Z,36.60
2018-04-12T10:03:32.134Z,35.80
2018-04-12T10:04:32.124Z,36.80
2018-04-12T10:05:32.103Z,35.90
2018-04-12T10:06:32.093Z,35.90
2018-04-12T10:07:32.086Z,36.20
2018-04-12T10:08:32.079Z,36.50
2018-04-12T10:09:32.063Z,35.60
2018-04-12T10:10:32.061Z,36.10
2018-04-12T10:11:32.045Z,35.80
2018-04-12T10:12:32.024Z,35.30
2018-04-12T10:13:32.010Z,35.10
2018-04-12T10:14:32.005Z,36.70
2018-04-12T10:15:31.996Z,35.30
2018-04-12T10:16:31.995Z,35.30
2018-04-12T10:17:31.968Z,35.50
2018-04-12T10:18:31.961Z,36.10
2018-04-12T10:19:31.944Z,35.50
2018-04-12T10:20:31.936Z,35.30
2018-04-12T10:21:31.921Z,35.70
2018-04-12T10:22:31.912Z,33.50
2018-04-12T10:23:31.899Z,34.30
2018-04-12T10:24:31.890Z,34.80
2018-04-12T10:25:31.886Z,34.20
2018-04-12T10:26:31.867Z,33.20
2018-04-12T10:27:31.854Z,34.20
2018-04-12T10:28:31.845Z,34.10
2018-04-12T10:29:31.833Z,33.80
2018-04-12T10:30:31.822Z,33.70
2018-04-12T10:31:31.813Z,33.90
2018-04-12T10:32:31.803Z,33.40
2018-04-12T10:33:31.794Z,31.90
2018-04-12T10:34:31.782Z,32.00
2018-04-12T10:35:31.772Z,32.40
2018-04-12T10:36:31.756Z,32.60
2018-04-12T10:37:31.752Z,32.30
2018-04-12T10:38:31.737Z,32.10
2018-04-12T10:39:31.728Z,31.40
2018-04-12T10:40:31.728Z,33.10
2018-04-12T10:41:31.756Z,30.00
2018-04-12T10:42:31.710Z,31.70
2018-04-12T10:43:31.687Z,36.20
2018-04-12T10:44:31.680Z,31.80
2018-04-12T10:45:31.672Z,29.40
2018-04-12T10:46:31.671Z,29.60
2018-04-12T10:47:31.651Z,29.60
2018-04-12T10:48:31.644Z,30.50
2018-04-12T10:49:31.637Z,29.90
2018-04-12T10:50:31.626Z,31.00
2018-04-12T10:51:31.627Z,30.40
2018-04-12T10:52:31.607Z,30.90
2018-04-12T10:53:31.602Z,31.30
2018-04-12T10:54:31.585Z,31.50
2018-04-12T10:55:31.574Z,31.10
2018-04-12T10:56:31.563Z,31.10
2018-04-12T10:57:31.556Z,30.70
2018-04-12T10:58:31.544Z,31.00
2018-04-12T10:59:31.538Z,29.30
2018-04-12T11:00:31.529Z,31.60
2018-04-12T11:01:31.527Z,31.70
2018-04-12T11:02:31.512Z,32.40
2018-04-12T11:03:31.510Z,31.90
2018-04-12T11:04:31.496Z,33.00
2018-04-12T11:05:31.483Z,31.90
2018-04-12T11:06:31.474Z,32.20
2018-04-12T11:07:31.464Z,32.40
2018-04-12T11:08:31.456Z,32.90
2018-04-12T11:09:31.443Z,32.70
2018-04-12T11:10:31.445Z,31.60
2018-04-12T11:11:31.438Z,31.40
2018-04-12T11:12:31.423Z,29.80
2018-04-12T11:13:31.412Z,32.50
2018-04-12T11:14:31.398Z,33.00
2018-04-12T11:15:31.391Z,34.00
2018-04-12T11:16:31.387Z,33.80
2018-04-12T11:17:31.374Z,33.60
2018-04-12T11:18:31.452Z,33.30
2018-04-12T11:19:31.355Z,33.40
2018-04-12T11:20:31.347Z,33.90
2018-04-12T11:21:31.333Z,32.90
2018-04-12T11:22:31.335Z,33.50
2018-04-12T11:23:31.337Z,34.40
2018-04-12T11:24:31.309Z,35.00
2018-04-12T11:25:31.297Z,33.50
2018-04-12T11:26:31.295Z,35.10
2018-04-12T11:27:31.278Z,33.40
2018-04-12T11:28:31.272Z,33.90
2018-04-12T11:29:31.277Z,32.80
2018-04-12T11:30:31.252Z,34.40
2018-04-12T11:31:31.250Z,34.50
2018-04-12T11:32:31.232Z,34.10
2018-04-12T11:33:31.224Z,34.30
2018-04-12T11:34:31.229Z,36.80
2018-04-12T11:35:31.200Z,34.10
2018-04-12T11:36:31.203Z,34.30
2018-04-12T11:37:31.183Z,34.40
2018-04-12T11:38:31.173Z,33.90
2018-04-12T11:39:31.164Z,35.10
2018-04-12T11:40:31.159Z,35.00
2018-04-12T11:41:31.153Z,34.90
2018-04-12T11:42:31.185Z,36.10
2018-04-12T11:43:31.131Z,34.50
2018-04-12T11:44:31.120Z,35.00
2018-04-12T11:45:31.126Z,36.60
2018-04-12T11:46:31.097Z,35.70
2018-04-12T11:47:31.092Z,36.60
2018-04-12T11:48:31.078Z,34.90
2018-04-12T11:49:31.071Z,36.80
2018-04-12T11:50:31.062Z,35.70
2018-04-12T11:51:31.051Z,35.00
2018-04-12T11:52:31.050Z,35.10
2018-04-12T11:53:31.040Z,36.60
2018-04-12T11:54:31.021Z,37.70
2018-04-12T11:55:31.045Z,37.50
2018-04-12T11:56:31.018Z,37.80
2018-04-12T11:57:30.998Z,35.00
2018-04-12T11:58:30.991Z,38.10
2018-04-12T11:59:30.975Z,39.20
2018-04-12T12:00:30.963Z,37.40
2018-04-12T12:01:30.954Z,38.50
2018-04-12T12:02:30.953Z,37.40
2018-04-12T12:03:30.938Z,37.00
2018-04-12T12:04:30.927Z,38.50
2018-04-12T12:05:30.922Z,38.30
2018-04-12T12:06:30.904Z,40.50
2018-04-12T12:07:30.903Z,39.90
2018-04-12T12:08:30.885Z,38.50
2018-04-12T12:09:30.880Z,38.60
2018-04-12T12:10:30.872Z,39.50
2018-04-12T12:11:30.859Z,39.40
2018-04-12T12:12:30.845Z,39.90
2018-04-12T12:13:30.846Z,40.10
2018-04-12T12:14:30.835Z,40.30
2018-04-12T12:15:30.824Z,39.80
2018-04-12T12:16:30.806Z,40.50
2018-04-12T12:17:30.810Z,39.10
2018-04-12T12:18:30.795Z,39.80
2018-04-12T12:19:30.796Z,40.10
2018-04-12T12:20:30.773Z,39.50
2018-04-12T12:21:30.761Z,41.30
2018-04-12T12:22:30.749Z,41.10
2018-04-12T12:23:30.747Z,41.40
2018-04-12T12:24:30.726Z,42.40
2018-04-12T12:25:30.722Z,40.40
2018-04-12T12:26:30.719Z,42.30
2018-04-12T12:27:30.804Z,41.40
2018-04-12T12:28:30.708Z,42.00
2018-04-12T12:29:30.682Z,40.90
2018-04-12T12:30:30.672Z,41.80
2018-04-12T12:31:30.667Z,42.20
2018-04-12T12:32:30.700Z,41.80
2018-04-12T12:33:30.647Z,41.10
2018-04-12T12:34:30.643Z,42.00
2018-04-12T12:35:30.621Z,41.40
2018-04-12T12:36:30.622Z,41.20
2018-04-12T12:37:30.611Z,40.80
2018-04-12T12:38:30.606Z,40.90
2018-04-12T12:39:30.598Z,42.50
2018-04-12T12:40:30.582Z,43.80
2018-04-12T12:41:30.569Z,42.00
2018-04-12T12:42:30.563Z,43.00
2018-04-12T12:43:30.552Z,43.60
2018-04-12T12:44:30.540Z,42.70
2018-04-12T12:45:30.534Z,42.60
2018-04-12T12:46:30.525Z,41.70
2018-04-12T12:47:30.513Z,43.20
2018-04-12T12:48:30.507Z,41.80
2018-04-12T12:49:30.497Z,41.70
2018-04-12T12:50:30.502Z,41.00
2018-04-12T12:51:30.481Z,41.90
2018-04-12T12:52:30.474Z,41.60